Terminal Aerodrome Forecast
Issued by NWS

Home | Current Version | Previous Version | Graphics & Text | Print | Product List | Glossary On
Versions: 1 2 3 4 5 6 7 8 9 10 11 12 13 14
000
FTUS43 KTOP 222200 AAA
TAFFOE
TAF AMD
KFOE 222228Z 2222/2318 18010KT P6SM VCTS SCT070CB BKN100
      TEMPO 2222/2224 5SM -TSRA OVC060CB
     FM230300 18007KT P6SM SCT070 BKN200
     FM231400 20013G21KT P6SM FEW250=

USA.gov is the U.S. government's official web portal to all federal, state and local government web resources and services.